Time;durP1;ratioP1;P1;durP2;ratioP2;P2;SDS_P1;SDS_P2;PMS_P1;PMS_P2;Temp;Humidity;BMP_temperature;BMP_pressure;BME280_temperature;BME280_humidity;BME280_pressure;Samples;Min_cycle;Max_cycle;Signal;HPM_P1;HPM_P2
2023/06/01 00:02:19;;;;;;;;;;;;;;;;;;2212901;59;2195;-23
2023/06/01 00:04:50;;;;;;;;;;;;;;;;;;2216142;66;2868;-23
2023/06/01 00:07:20;;;;;;;;;;;;;;;;;;2213891;66;2778;-23
2023/06/01 00:09:51;;;;;;;;;;;;;;;;;;2211879;66;1645;-23
2023/06/01 00:12:21;;;;;;;;;;;;;;;;;;2214566;59;2301;-23
2023/06/01 00:14:51;;;;;;;;;;;;;;;;;;2211722;66;2033;-23
2023/06/01 00:17:22;;;;;;;;;;;;;;;;;;2211052;66;2413;-23
2023/06/01 00:19:52;;;;;;;;;;;;;;;;;;2211954;66;2721;-23
2023/06/01 00:22:23;;;;;;;;;;;;;;;;;;2214132;66;2880;-22
2023/06/01 00:24:54;;;;;;;;;;;;;;;;;;2214866;58;2617;-23
2023/06/01 00:27:25;;;;;;;;;;;;;;;;;;2211154;66;3007;-23
2023/06/01 00:29:55;;;;;;;;;;;;;;;;;;2214805;66;2678;-23
2023/06/01 00:32:25;;;;;;;;;;;;;;;;;;2214908;58;2349;-22
2023/06/01 00:34:55;;;;;;;;;;;;;;;;;;2216444;58;1497;-23
2023/06/01 00:37:26;;;;;;;;;;;;;;;;;;2214401;59;2570;-23
2023/06/01 00:39:56;;;;;;;;;;;;;;;;;;2211910;59;1836;-23
2023/06/01 00:42:29;;;;;;;;;;;;;;;;;;2215611;66;2742;-22
2023/06/01 00:44:59;;;;;;;;;;;;;;;;;;2215314;66;2551;-23
2023/06/01 00:47:32;;;;;;;;;;;;;;;;;;2214566;59;2994;-23
2023/06/01 00:50:03;;;;;;;;;;;;;;;;;;2212316;59;2178;-22
2023/06/01 00:52:33;;;;;;;;;;;;;;;;;;2211295;59;2554;-23
2023/06/01 00:55:04;;;;;;;;;;;;;;;;;;2215199;58;2479;-23
2023/06/01 00:57:35;;;;;;;;;;;;;;;;;;2215107;66;2663;-22
2023/06/01 01:00:09;;;;;;;;;;;;;;;;;;2214704;66;2354;-23
2023/06/01 01:02:40;;;;;;;;;;;;;;;;;;2212156;59;1985;-23
2023/06/01 01:05:10;;;;;;;;;;;;;;;;;;2214429;66;2966;-22
2023/06/01 01:07:44;;;;;;;;;;;;;;;;;;2213036;59;1872;-23
2023/06/01 01:10:22;;;;;;;;;;;;;;;;;;2214522;66;1882;-23
2023/06/01 01:13:10;;;;;;;;;;;;;;;;;;2214356;66;2704;-23
2023/06/01 01:15:43;;;;;;;;;;;;;;;;;;2214827;66;2417;-23
2023/06/01 01:18:23;;;;;;;;;;;;;;;;;;2215038;59;3612;-23
2023/06/01 01:20:58;;;;;;;;;;;;;;;;;;2215970;66;2961;-23
2023/06/01 01:23:58;;;;;;;;;;;;;;;;;;2215517;66;2254;-23
2023/06/01 01:26:36;;;;;;;;;;;;;;;;;;2211604;59;2288;-23
2023/06/01 01:29:09;;;;;;;;;;;;;;;;;;2212141;66;2570;-23
2023/06/01 01:31:40;;;;;;;;;;;;;;;;;;2212161;59;2737;-23
2023/06/01 01:34:10;;;;;;;;;;;;;;;;;;2215039;66;2331;-23
2023/06/01 01:36:41;;;;;;;;;;;;;;;;;;2212904;59;2067;-23
2023/06/01 01:39:11;;;;;;;;;;;;;;;;;;2215516;58;1836;-23
2023/06/01 01:41:41;;;;;;;;;;;;;;;;;;2215315;66;3071;-23
2023/06/01 01:44:14;;;;;;;;;;;;;;;;;;2214585;66;2121;-23
2023/06/01 01:46:52;;;;;;;;;;;;;;;;;;2215274;59;2192;-23
2023/06/01 01:49:25;;;;;;;;;;;;;;;;;;2210801;58;1638;-23
2023/06/01 01:51:58;;;;;;;;;;;;;;;;;;2215726;59;1759;-23
2023/06/01 01:54:29;;;;;;;;;;;;;;;;;;2212390;59;1910;-23
2023/06/01 01:57:00;;;;;;;;;;;;;;;;;;2215151;66;1161;-23
2023/06/01 01:59:31;;;;;;;;;;;;;;;;;;2214797;58;2232;-23
2023/06/01 02:02:02;;;;;;;;;;;;;;;;;;2212796;59;1177;-23
2023/06/01 02:04:32;;;;;;;;;;;;;;;;;;2217034;66;1183;-23
2023/06/01 02:07:03;;;;;;;;;;;;;;;;;;2212403;66;1949;-23
2023/06/01 02:09:33;;;;;;;;;;;;;;;;;;2211842;59;1632;-23
2023/06/01 02:12:03;;;;;;;;;;;;;;;;;;2210024;66;1960;-23
2023/06/01 02:14:33;;;;;;;;;;;;;;;;;;2212423;66;2056;-23
2023/06/01 02:17:05;;;;;;;;;;;;;;;;;;2215321;66;1133;-23
2023/06/01 02:19:35;;;;;;;;;;;;;;;;;;2214738;66;1227;-23
2023/06/01 02:22:05;;;;;;;;;;;;;;;;;;2213886;66;1156;-23
2023/06/01 02:24:35;;;;;;;;;;;;;;;;;;2210773;59;1814;-23
2023/06/01 02:27:06;;;;;;;;;;;;;;;;;;2215565;66;1953;-23
2023/06/01 02:29:36;;;;;;;;;;;;;;;;;;2210748;66;1357;-23
2023/06/01 02:32:07;;;;;;;;;;;;;;;;;;2214997;59;2487;-23
2023/06/01 02:34:37;;;;;;;;;;;;;;;;;;2215922;59;2865;-23
2023/06/01 02:37:08;;;;;;;;;;;;;;;;;;2212509;59;1869;-23
2023/06/01 02:39:38;;;;;;;;;;;;;;;;;;2214774;58;2999;-23
2023/06/01 02:42:11;;;;;;;;;;;;;;;;;;2211268;66;1851;-23
2023/06/01 02:44:41;;;;;;;;;;;;;;;;;;2215785;66;1943;-24
2023/06/01 02:47:11;;;;;;;;;;;;;;;;;;2214696;59;2745;-24
2023/06/01 02:49:42;;;;;;;;;;;;;;;;;;2214674;58;2357;-23
2023/06/01 02:52:12;;;;;;;;;;;;;;;;;;2215058;59;2358;-23
2023/06/01 02:54:42;;;;;;;;;;;;;;;;;;2212197;58;1878;-23
2023/06/01 02:57:12;;;;;;;;;;;;;;;;;;2215068;66;2555;-23
2023/06/01 02:59:45;;;;;;;;;;;;;;;;;;2215412;59;3194;-23
2023/06/01 03:02:16;;;;;;;;;;;;;;;;;;2214394;58;1608;-23
2023/06/01 03:04:46;;;;;;;;;;;;;;;;;;2215216;66;2931;-23
2023/06/01 03:07:16;;;;;;;;;;;;;;;;;;2215289;66;1762;-23
2023/06/01 03:09:46;;;;;;;;;;;;;;;;;;2215439;66;2666;-23
2023/06/01 03:12:17;;;;;;;;;;;;;;;;;;2214696;66;1995;-23
2023/06/01 03:14:47;;;;;;;;;;;;;;;;;;2215806;66;1599;-23
2023/06/01 03:17:17;;;;;;;;;;;;;;;;;;2214607;66;2835;-23
2023/06/01 03:19:47;;;;;;;;;;;;;;;;;;2215493;66;2472;-23
2023/06/01 03:22:17;;;;;;;;;;;;;;;;;;2214152;66;2796;-23
2023/06/01 03:24:49;;;;;;;;;;;;;;;;;;2215647;66;1998;-23
2023/06/01 03:27:19;;;;;;;;;;;;;;;;;;2214975;59;2555;-23
2023/06/01 03:29:50;;;;;;;;;;;;;;;;;;2212302;66;2310;-23
2023/06/01 03:32:20;;;;;;;;;;;;;;;;;;2214684;59;2558;-23
2023/06/01 03:34:51;;;;;;;;;;;;;;;;;;2214552;66;2427;-23
2023/06/01 03:37:21;;;;;;;;;;;;;;;;;;2213900;58;2298;-23
2023/06/01 03:39:51;;;;;;;;;;;;;;;;;;2215728;58;1881;-23
2023/06/01 03:42:21;;;;;;;;;;;;;;;;;;2214553;58;2081;-23
2023/06/01 03:44:52;;;;;;;;;;;;;;;;;;2215316;58;2118;-23
2023/06/01 03:47:22;;;;;;;;;;;;;;;;;;2214086;59;2466;-23
2023/06/01 03:49:52;;;;;;;;;;;;;;;;;;2215856;58;1878;-23
2023/06/01 03:52:22;;;;;;;;;;;;;;;;;;2214263;58;1850;-23
2023/06/01 03:54:54;;;;;;;;;;;;;;;;;;2216308;58;1843;-23
2023/06/01 03:57:24;;;;;;;;;;;;;;;;;;2215358;58;2286;-23
2023/06/01 03:59:55;;;;;;;;;;;;;;;;;;2211856;66;1817;-23
2023/06/01 04:02:26;;;;;;;;;;;;;;;;;;2215109;58;2443;-23
2023/06/01 04:04:56;;;;;;;;;;;;;;;;;;2216016;66;2807;-23
2023/06/01 04:07:26;;;;;;;;;;;;;;;;;;2212785;59;2936;-23
2023/06/01 04:09:57;;;;;;;;;;;;;;;;;;2215787;66;2302;-23
2023/06/01 04:12:27;;;;;;;;;;;;;;;;;;2215011;66;2325;-23
2023/06/01 04:14:57;;;;;;;;;;;;;;;;;;2215787;58;1814;-23
2023/06/01 04:17:27;;;;;;;;;;;;;;;;;;2214798;66;2767;-23
2023/06/01 04:19:57;;;;;;;;;;;;;;;;;;2212606;59;2450;-23
2023/06/01 04:22:28;;;;;;;;;;;;;;;;;;2214786;66;2882;-23
2023/06/01 04:24:58;;;;;;;;;;;;;;;;;;2215754;58;1943;-23
2023/06/01 04:27:28;;;;;;;;;;;;;;;;;;2214782;59;1527;-23
2023/06/01 04:29:58;;;;;;;;;;;;;;;;;;2215312;66;1937;-23
2023/06/01 04:32:29;;;;;;;;;;;;;;;;;;2214218;66;1865;-23
2023/06/01 04:34:59;;;;;;;;;;;;;;;;;;2214851;58;2851;-23
2023/06/01 04:37:29;;;;;;;;;;;;;;;;;;2214611;66;2708;-23
2023/06/01 04:40:00;;;;;;;;;;;;;;;;;;2215581;58;1924;-23
2023/06/01 04:42:31;;;;;;;;;;;;;;;;;;2215336;66;2303;-23
2023/06/01 04:45:06;;;;;;;;;;;;;;;;;;2213075;66;2732;-23
2023/06/01 04:47:39;;;;;;;;;;;;;;;;;;2214788;59;2720;-23
2023/06/01 04:50:11;;;;;;;;;;;;;;;;;;2215001;59;2363;-23
2023/06/01 04:52:41;;;;;;;;;;;;;;;;;;2214986;58;1944;-23
2023/06/01 04:55:15;;;;;;;;;;;;;;;;;;2215648;58;1820;-22
2023/06/01 04:57:45;;;;;;;;;;;;;;;;;;2214924;59;2905;-23
2023/06/01 05:00:19;;;;;;;;;;;;;;;;;;2214479;66;1914;-23
2023/06/01 05:02:49;;;;;;;;;;;;;;;;;;2215218;66;1956;-23
2023/06/01 05:05:19;;;;;;;;;;;;;;;;;;2213995;66;2878;-23
2023/06/01 05:07:49;;;;;;;;;;;;;;;;;;2215351;66;1791;-23
2023/06/01 05:10:20;;;;;;;;;;;;;;;;;;2215749;66;2394;-23
2023/06/01 05:12:50;;;;;;;;;;;;;;;;;;2215204;66;2823;-23
2023/06/01 05:15:20;;;;;;;;;;;;;;;;;;2214465;58;2658;-22
2023/06/01 05:17:50;;;;;;;;;;;;;;;;;;2212779;59;1897;-23
2023/06/01 05:20:21;;;;;;;;;;;;;;;;;;2214759;66;2868;-23
2023/06/01 05:22:51;;;;;;;;;;;;;;;;;;2215595;66;2358;-23
2023/06/01 05:25:21;;;;;;;;;;;;;;;;;;2211640;59;1983;-23
2023/06/01 05:27:51;;;;;;;;;;;;;;;;;;2215717;66;2003;-23
2023/06/01 05:30:21;;;;;;;;;;;;;;;;;;2211607;66;1650;-23
2023/06/01 05:32:52;;;;;;;;;;;;;;;;;;2214796;66;1856;-23
2023/06/01 05:35:22;;;;;;;;;;;;;;;;;;2211150;58;2323;-23
2023/06/01 05:37:52;;;;;;;;;;;;;;;;;;2214192;58;2545;-23
2023/06/01 05:40:22;;;;;;;;;;;;;;;;;;2213742;59;1897;-23
2023/06/01 05:42:52;;;;;;;;;;;;;;;;;;2212136;60;2262;-23
2023/06/01 05:45:23;;;;;;;;;;;;;;;;;;2214277;66;2057;-23
2023/06/01 05:47:53;;;;;;;;;;;;;;;;;;2213113;58;2126;-23
2023/06/01 05:50:24;;;;;;;;;;;;;;;;;;2210633;59;2979;-23
2023/06/01 05:52:54;;;;;;;;;;;;;;;;;;2209798;59;1969;-23
2023/06/01 05:55:25;;;;;;;;;;;;;;;;;;2214891;58;2548;-23
2023/06/01 05:57:55;;;;;;;;;;;;;;;;;;2214486;59;2139;-23
2023/06/01 06:00:25;;;;;;;;;;;;;;;;;;2211444;58;2507;-23
2023/06/01 06:02:56;;;;;;;;;;;;;;;;;;2214656;66;1968;-23
2023/06/01 06:05:26;;;;;;;;;;;;;;;;;;2214738;59;2776;-23
2023/06/01 06:07:56;;;;;;;;;;;;;;;;;;2214353;66;2270;-23
2023/06/01 06:10:26;;;;;;;;;;;;;;;;;;2211331;59;2134;-23
2023/06/01 06:12:56;;;;;;;;;;;;;;;;;;2215758;66;2642;-23
2023/06/01 06:15:27;;;;;;;;;;;;;;;;;;2215331;66;1731;-23
2023/06/01 06:17:57;;;;;;;;;;;;;;;;;;2215595;66;1825;-23
2023/06/01 06:20:27;;;;;;;;;;;;;;;;;;2214468;66;1987;-24
2023/06/01 06:22:57;;;;;;;;;;;;;;;;;;2215923;66;2710;-23
2023/06/01 06:25:27;;;;;;;;;;;;;;;;;;2214769;59;2120;-23
2023/06/01 06:27:58;;;;;;;;;;;;;;;;;;2215993;66;2694;-24
2023/06/01 06:30:28;;;;;;;;;;;;;;;;;;2215985;58;1999;-23
2023/06/01 06:32:58;;;;;;;;;;;;;;;;;;2211958;66;3519;-23
2023/06/01 06:35:28;;;;;;;;;;;;;;;;;;2216332;59;2917;-23
2023/06/01 06:37:59;;;;;;;;;;;;;;;;;;2211984;58;2627;-23
2023/06/01 06:40:29;;;;;;;;;;;;;;;;;;2214756;58;1880;-23
2023/06/01 06:42:59;;;;;;;;;;;;;;;;;;2213865;59;2617;-23
2023/06/01 06:45:29;;;;;;;;;;;;;;;;;;2214659;66;2889;-23
2023/06/01 06:48:03;;;;;;;;;;;;;;;;;;2211910;59;2245;-24
2023/06/01 06:50:33;;;;;;;;;;;;;;;;;;2214639;58;2293;-24
2023/06/01 06:53:04;;;;;;;;;;;;;;;;;;2214765;59;1607;-24
2023/06/01 06:55:34;;;;;;;;;;;;;;;;;;2211679;58;3058;-24
2023/06/01 06:58:04;;;;;;;;;;;;;;;;;;2215871;58;2183;-23
2023/06/01 07:00:35;;;;;;;;;;;;;;;;;;2209187;58;2100;-23
2023/06/01 07:03:06;;;;;;;;;;;;;;;;;;2214900;66;2338;-23
2023/06/01 07:05:36;;;;;;;;;;;;;;;;;;2215336;66;1931;-23
2023/06/01 07:08:06;;;;;;;;;;;;;;;;;;2205455;59;3898;-18
2023/06/01 07:10:37;;;;;;;;;;;;;;;;;;2201777;66;2650;-19
2023/06/01 07:13:07;;;;;;;;;;;;;;;;;;2203172;59;1480;-18
2023/06/01 07:15:40;;;;;;;;;;;;;;;;;;2203200;66;2747;-18
2023/06/01 07:18:10;;;;;;;;;;;;;;;;;;2202757;66;2520;-18
2023/06/01 07:20:40;;;;;;;;;;;;;;;;;;2202764;66;2867;-18
2023/06/01 07:23:12;;;;;;;;;;;;;;;;;;2203762;66;1243;-18
2023/06/01 07:25:42;;;;;;;;;;;;;;;;;;2201288;59;2354;-18
2023/06/01 07:28:13;;;;;;;;;;;;;;;;;;2201778;60;1286;-18
2023/06/01 07:30:43;;;;;;;;;;;;;;;;;;2203732;66;1598;-19
2023/06/01 07:33:17;;;;;;;;;;;;;;;;;;2199928;66;2607;-19
2023/06/01 07:35:52;;;;;;;;;;;;;;;;;;2203553;59;1530;-19
2023/06/01 07:38:22;;;;;;;;;;;;;;;;;;2202263;59;3208;-19
2023/06/01 07:40:53;;;;;;;;;;;;;;;;;;2200519;66;2691;-19
2023/06/01 07:43:23;;;;;;;;;;;;;;;;;;2202754;59;1464;-19
2023/06/01 07:45:54;;;;;;;;;;;;;;;;;;2199707;64;2701;-18
2023/06/01 07:48:24;;;;;;;;;;;;;;;;;;2201408;66;2432;-18
2023/06/01 07:50:54;;;;;;;;;;;;;;;;;;2202250;59;1364;-18
2023/06/01 07:53:25;;;;;;;;;;;;;;;;;;2201785;66;1211;-18
2023/06/01 07:55:55;;;;;;;;;;;;;;;;;;2201538;59;1755;-18
2023/06/01 07:58:26;;;;;;;;;;;;;;;;;;2199502;59;2262;-19
2023/06/01 08:00:59;;;;;;;;;;;;;;;;;;2199499;59;2673;-18
2023/06/01 08:03:29;;;;;;;;;;;;;;;;;;2200883;66;1205;-19
2023/06/01 08:06:02;;;;;;;;;;;;;;;;;;2201734;59;2161;-18
2023/06/01 08:08:32;;;;;;;;;;;;;;;;;;2200933;66;1643;-18
2023/06/01 08:11:02;;;;;;;;;;;;;;;;;;2199131;59;2224;-19
2023/06/01 08:13:35;;;;;;;;;;;;;;;;;;2196320;59;2288;-19
2023/06/01 08:16:06;;;;;;;;;;;;;;;;;;2201355;66;1839;-19
2023/06/01 08:18:36;;;;;;;;;;;;;;;;;;2198074;66;1357;-19
2023/06/01 08:21:08;;;;;;;;;;;;;;;;;;2201187;66;1184;-19
2023/06/01 08:23:40;;;;;;;;;;;;;;;;;;2201972;66;1266;-19
2023/06/01 08:26:10;;;;;;;;;;;;;;;;;;2199685;59;1928;-19
2023/06/01 08:28:41;;;;;;;;;;;;;;;;;;2201423;66;1295;-19
2023/06/01 08:31:14;;;;;;;;;;;;;;;;;;2201502;59;1488;-19
2023/06/01 08:33:45;;;;;;;;;;;;;;;;;;2202151;66;1113;-19
2023/06/01 08:36:15;;;;;;;;;;;;;;;;;;2199274;59;2027;-19
2023/06/01 08:38:46;;;;;;;;;;;;;;;;;;2216091;59;2212;-19
2023/06/01 08:41:19;;;;;;;;;;;;;;;;;;2201194;59;1268;-19
2023/06/01 08:43:54;;;;;;;;;;;;;;;;;;2200866;66;1382;-19
2023/06/01 08:46:26;;;;;;;;;;;;;;;;;;2200787;59;2048;-20
2023/06/01 08:48:57;;;;;;;;;;;;;;;;;;2200796;66;1346;-19
2023/06/01 08:51:28;;;;;;;;;;;;;;;;;;2201184;59;1477;-19
2023/06/01 08:54:00;;;;;;;;;;;;;;;;;;2200203;59;2233;-19
2023/06/01 08:56:33;;;;;;;;;;;;;;;;;;2196132;66;2481;-19
2023/06/01 08:59:03;;;;;;;;;;;;;;;;;;2200433;66;2228;-19
2023/06/01 09:01:34;;;;;;;;;;;;;;;;;;2200764;59;1427;-19
2023/06/01 09:04:04;;;;;;;;;;;;;;;;;;2200930;66;1581;-19
2023/06/01 09:06:36;;;;;;;;;;;;;;;;;;2200741;59;1948;-19
2023/06/01 09:09:11;;;;;;;;;;;;;;;;;;2200058;66;1659;-19
2023/06/01 09:11:41;;;;;;;;;;;;;;;;;;2201055;66;1774;-19
2023/06/01 09:14:20;;;;;;;;;;;;;;;;;;2201354;66;1611;-19
2023/06/01 09:16:51;;;;;;;;;;;;;;;;;;2201384;66;1400;-19
2023/06/01 09:19:21;;;;;;;;;;;;;;;;;;2200260;66;1357;-19
2023/06/01 09:21:58;;;;;;;;;;;;;;;;;;2200462;66;1135;-19
2023/06/01 09:24:28;;;;;;;;;;;;;;;;;;2200441;59;1319;-19
2023/06/01 09:27:00;;;;;;;;;;;;;;;;;;2199900;66;1947;-19
2023/06/01 09:29:30;;;;;;;;;;;;;;;;;;2200004;66;1813;-19
2023/06/01 09:32:01;;;;;;;;;;;;;;;;;;2200639;66;1249;-19
2023/06/01 09:34:31;;;;;;;;;;;;;;;;;;2200410;66;1869;-19
2023/06/01 09:37:05;;;;;;;;;;;;;;;;;;2201308;59;1588;-19
2023/06/01 09:39:35;;;;;;;;;;;;;;;;;;2199993;59;1821;-19
2023/06/01 09:42:06;;;;;;;;;;;;;;;;;;2201699;66;1716;-19
2023/06/01 09:44:37;;;;;;;;;;;;;;;;;;2201387;59;1650;-19
2023/06/01 09:47:14;;;;;;;;;;;;;;;;;;2201559;59;2158;-19
2023/06/01 09:49:44;;;;;;;;;;;;;;;;;;2199998;59;2700;-19
2023/06/01 09:52:16;;;;;;;;;;;;;;;;;;2201103;59;1414;-19
2023/06/01 09:54:50;;;;;;;;;;;;;;;;;;2200598;59;1401;-19
2023/06/01 09:57:22;;;;;;;;;;;;;;;;;;2200745;66;1306;-19
2023/06/01 09:59:52;;;;;;;;;;;;;;;;;;2201719;66;2547;-19
2023/06/01 10:02:25;;;;;;;;;;;;;;;;;;2200787;59;1321;-19
2023/06/01 10:04:58;;;;;;;;;;;;;;;;;;2199744;59;2390;-19
2023/06/01 10:07:29;;;;;;;;;;;;;;;;;;2197949;66;1604;-19
2023/06/01 10:10:02;;;;;;;;;;;;;;;;;;2198251;66;1269;-19
2023/06/01 10:12:32;;;;;;;;;;;;;;;;;;2201293;66;2200;-19
2023/06/01 10:15:03;;;;;;;;;;;;;;;;;;2201475;66;1676;-19
2023/06/01 10:17:34;;;;;;;;;;;;;;;;;;2201795;59;1684;-19
2023/06/01 10:20:05;;;;;;;;;;;;;;;;;;2200769;59;2028;-19
2023/06/01 10:22:38;;;;;;;;;;;;;;;;;;2200580;59;1622;-19
2023/06/01 10:25:11;;;;;;;;;;;;;;;;;;2201535;59;1988;-19
2023/06/01 10:27:45;;;;;;;;;;;;;;;;;;2200473;59;1663;-19
2023/06/01 10:30:15;;;;;;;;;;;;;;;;;;2201057;59;1634;-19
2023/06/01 10:32:47;;;;;;;;;;;;;;;;;;2200574;66;1899;-19
2023/06/01 10:35:24;;;;;;;;;;;;;;;;;;2197154;59;2274;-19
2023/06/01 10:38:06;;;;;;;;;;;;;;;;;;2200968;59;1360;-19
2023/06/01 10:40:37;;;;;;;;;;;;;;;;;;2201126;66;1373;-19
2023/06/01 10:43:08;;;;;;;;;;;;;;;;;;2201645;66;1378;-19
2023/06/01 10:45:39;;;;;;;;;;;;;;;;;;2200503;66;1936;-19
2023/06/01 10:48:11;;;;;;;;;;;;;;;;;;2200887;59;2116;-19
2023/06/01 10:50:42;;;;;;;;;;;;;;;;;;2200608;59;1873;-19
2023/06/01 10:53:28;;;;;;;;;;;;;;;;;;2200419;59;1970;-19
2023/06/01 10:56:17;;;;;;;;;;;;;;;;;;2201563;59;1980;-19
2023/06/01 10:59:07;;;;;;;;;;;;;;;;;;2201089;59;2340;-19
2023/06/01 11:01:45;;;;;;;;;;;;;;;;;;2200281;59;2449;-19
2023/06/01 11:04:15;;;;;;;;;;;;;;;;;;2201201;66;1161;-19
2023/06/01 11:06:46;;;;;;;;;;;;;;;;;;2201119;59;1999;-19
2023/06/01 11:09:17;;;;;;;;;;;;;;;;;;2201189;66;2301;-19
2023/06/01 11:11:47;;;;;;;;;;;;;;;;;;2201060;66;1239;-19
2023/06/01 11:14:19;;;;;;;;;;;;;;;;;;2201293;66;1227;-19
2023/06/01 11:16:52;;;;;;;;;;;;;;;;;;2201026;66;1680;-19
2023/06/01 11:19:27;;;;;;;;;;;;;;;;;;2196252;67;1646;-19
2023/06/01 11:22:01;;;;;;;;;;;;;;;;;;2200855;66;1227;-19
2023/06/01 11:24:33;;;;;;;;;;;;;;;;;;2200572;59;2057;-19
2023/06/01 11:27:08;;;;;;;;;;;;;;;;;;2200230;59;2530;-19
2023/06/01 11:29:47;;;;;;;;;;;;;;;;;;2200183;66;1135;-21
2023/06/01 11:32:21;;;;;;;;;;;;;;;;;;2196331;58;2985;-21
2023/06/01 11:34:54;;;;;;;;;;;;;;;;;;2198655;66;3099;-21
2023/06/01 11:37:25;;;;;;;;;;;;;;;;;;2200390;59;2854;-21
2023/06/01 11:40:04;;;;;;;;;;;;;;;;;;2199211;59;2365;-21
2023/06/01 11:42:35;;;;;;;;;;;;;;;;;;2198570;66;1460;-21
2023/06/01 11:45:06;;;;;;;;;;;;;;;;;;2199783;66;1933;-21
2023/06/01 11:47:37;;;;;;;;;;;;;;;;;;2200084;59;2231;-21
2023/06/01 11:50:19;;;;;;;;;;;;;;;;;;2198285;59;1497;-21
2023/06/01 11:52:49;;;;;;;;;;;;;;;;;;2200347;59;1285;-21
2023/06/01 11:55:19;;;;;;;;;;;;;;;;;;2200221;59;1217;-21
2023/06/01 11:57:50;;;;;;;;;;;;;;;;;;2198376;66;2940;-21
2023/06/01 12:00:20;;;;;;;;;;;;;;;;;;2197591;59;1643;-21
2023/06/01 12:03:04;;;;;;;;;;;;;;;;;;2200617;66;1263;-21
2023/06/01 12:05:38;;;;;;;;;;;;;;;;;;2201249;66;1940;-21
2023/06/01 12:08:13;;;;;;;;;;;;;;;;;;2200515;59;1244;-21
2023/06/01 12:10:44;;;;;;;;;;;;;;;;;;2201841;59;1836;-21
2023/06/01 12:13:15;;;;;;;;;;;;;;;;;;2200590;66;1159;-21
2023/06/01 12:15:46;;;;;;;;;;;;;;;;;;2201410;66;1770;-21
2023/06/01 12:18:28;;;;;;;;;;;;;;;;;;2195892;66;1828;-21
2023/06/01 12:20:58;;;;;;;;;;;;;;;;;;2200837;66;1715;-21
2023/06/01 12:23:29;;;;;;;;;;;;;;;;;;2199893;66;1469;-21
2023/06/01 12:26:00;;;;;;;;;;;;;;;;;;2198251;66;1933;-21
2023/06/01 12:28:46;;;;;;;;;;;;;;;;;;2202296;66;1767;-21
2023/06/01 12:31:17;;;;;;;;;;;;;;;;;;2200671;59;1706;-21
2023/06/01 12:33:48;;;;;;;;;;;;;;;;;;2198794;59;1261;-21
2023/06/01 12:36:34;;;;;;;;;;;;;;;;;;2200637;59;1453;-21
2023/06/01 12:39:04;;;;;;;;;;;;;;;;;;2200571;66;1761;-21
2023/06/01 12:41:35;;;;;;;;;;;;;;;;;;2200422;66;1245;-21
2023/06/01 12:44:05;;;;;;;;;;;;;;;;;;2200977;66;1142;-21
2023/06/01 12:46:35;;;;;;;;;;;;;;;;;;2200833;59;2135;-21
2023/06/01 12:49:13;;;;;;;;;;;;;;;;;;2200899;66;1537;-21
2023/06/01 12:51:44;;;;;;;;;;;;;;;;;;2200674;59;1652;-21
2023/06/01 12:54:17;;;;;;;;;;;;;;;;;;2197994;66;1388;-21
2023/06/01 12:56:48;;;;;;;;;;;;;;;;;;2201302;60;1293;-21
2023/06/01 12:59:18;;;;;;;;;;;;;;;;;;2200613;66;1163;-21
2023/06/01 13:01:48;;;;;;;;;;;;;;;;;;2201329;59;1215;-21
2023/06/01 13:04:19;;;;;;;;;;;;;;;;;;2198222;66;1273;-20
2023/06/01 13:06:50;;;;;;;;;;;;;;;;;;2204339;54;1989;-22
2023/06/01 13:09:22;;;;;;;;;;;;;;;;;;2209748;66;1602;-22
2023/06/01 13:11:52;;;;;;;;;;;;;;;;;;2214303;66;2333;-22
2023/06/01 13:14:22;;;;;;;;;;;;;;;;;;2218325;59;2409;-22
2023/06/01 13:16:53;;;;;;;;;;;;;;;;;;2218551;66;1940;-22
2023/06/01 13:19:25;;;;;;;;;;;;;;;;;;2217853;58;1630;-23
2023/06/01 13:21:56;;;;;;;;;;;;;;;;;;2216831;66;2813;-22
2023/06/01 13:24:26;;;;;;;;;;;;;;;;;;2213756;58;2678;-22
2023/06/01 13:26:56;;;;;;;;;;;;;;;;;;2214258;66;2471;-22
2023/06/01 13:29:26;;;;;;;;;;;;;;;;;;2217686;58;2145;-21
2023/06/01 13:31:57;;;;;;;;;;;;;;;;;;2213348;66;1934;-22
2023/06/01 13:34:27;;;;;;;;;;;;;;;;;;2217172;66;2499;-21
2023/06/01 13:36:58;;;;;;;;;;;;;;;;;;2217330;58;1774;-22
2023/06/01 13:39:31;;;;;;;;;;;;;;;;;;2214125;59;1512;-23
2023/06/01 13:42:02;;;;;;;;;;;;;;;;;;2218287;66;1764;-22
2023/06/01 13:44:32;;;;;;;;;;;;;;;;;;2218882;58;1749;-22
2023/06/01 13:47:03;;;;;;;;;;;;;;;;;;2216952;66;2925;-22
2023/06/01 13:49:33;;;;;;;;;;;;;;;;;;2216927;58;2678;-21
2023/06/01 13:52:03;;;;;;;;;;;;;;;;;;2214800;58;3142;-22
2023/06/01 13:54:33;;;;;;;;;;;;;;;;;;2214472;58;2385;-22
2023/06/01 13:57:05;;;;;;;;;;;;;;;;;;2213727;66;2858;-22
2023/06/01 13:59:35;;;;;;;;;;;;;;;;;;2213889;59;2296;-22
2023/06/01 14:02:07;;;;;;;;;;;;;;;;;;2216770;58;2977;-22
2023/06/01 14:04:40;;;;;;;;;;;;;;;;;;2217578;58;1695;-22
2023/06/01 14:07:10;;;;;;;;;;;;;;;;;;2216857;59;2699;-22
2023/06/01 14:09:40;;;;;;;;;;;;;;;;;;2217820;66;1849;-23
2023/06/01 14:12:11;;;;;;;;;;;;;;;;;;2217697;58;2757;-23
2023/06/01 14:14:41;;;;;;;;;;;;;;;;;;2217821;59;2305;-23
2023/06/01 14:17:12;;;;;;;;;;;;;;;;;;2215077;66;2903;-23
2023/06/01 14:19:42;;;;;;;;;;;;;;;;;;2213398;59;2762;-23
2023/06/01 14:22:13;;;;;;;;;;;;;;;;;;2217005;58;2601;-23
2023/06/01 14:24:43;;;;;;;;;;;;;;;;;;2215280;58;2549;-23
2023/06/01 14:27:13;;;;;;;;;;;;;;;;;;2215754;58;2804;-23
2023/06/01 14:29:43;;;;;;;;;;;;;;;;;;2213506;59;1777;-23
2023/06/01 14:32:16;;;;;;;;;;;;;;;;;;2216400;58;2355;-23
2023/06/01 14:34:46;;;;;;;;;;;;;;;;;;2216561;66;2262;-23
2023/06/01 14:37:17;;;;;;;;;;;;;;;;;;2216616;58;1810;-23
2023/06/01 14:39:47;;;;;;;;;;;;;;;;;;2214334;59;2713;-23
2023/06/01 14:42:23;;;;;;;;;;;;;;;;;;2216932;66;2532;-23
2023/06/01 14:44:54;;;;;;;;;;;;;;;;;;2217167;59;1660;-23
2023/06/01 14:47:24;;;;;;;;;;;;;;;;;;2217907;66;2119;-23
2023/06/01 14:49:54;;;;;;;;;;;;;;;;;;2218242;66;2181;-23
2023/06/01 14:52:25;;;;;;;;;;;;;;;;;;2217599;58;1261;-23
2023/06/01 14:54:55;;;;;;;;;;;;;;;;;;2218346;58;1163;-23
2023/06/01 14:57:25;;;;;;;;;;;;;;;;;;2216926;58;2181;-23
2023/06/01 14:59:56;;;;;;;;;;;;;;;;;;2216526;59;2600;-23
2023/06/01 15:02:26;;;;;;;;;;;;;;;;;;2216624;58;1717;-23
2023/06/01 15:04:56;;;;;;;;;;;;;;;;;;2218005;59;1773;-23
2023/06/01 15:07:26;;;;;;;;;;;;;;;;;;2217409;58;1921;-22
2023/06/01 15:09:57;;;;;;;;;;;;;;;;;;2213703;66;1198;-22
2023/06/01 15:12:30;;;;;;;;;;;;;;;;;;2213783;66;1701;-22
2023/06/01 15:15:00;;;;;;;;;;;;;;;;;;2217496;66;1220;-22
2023/06/01 15:17:34;;;;;;;;;;;;;;;;;;2217962;66;1636;-22
2023/06/01 15:20:05;;;;;;;;;;;;;;;;;;2217140;66;2096;-22
2023/06/01 15:22:36;;;;;;;;;;;;;;;;;;2211077;66;1378;-22
2023/06/01 15:25:06;;;;;;;;;;;;;;;;;;2216930;66;2286;-23
2023/06/01 15:27:38;;;;;;;;;;;;;;;;;;2216997;59;2318;-23
2023/06/01 15:30:09;;;;;;;;;;;;;;;;;;2217619;59;1973;-23
2023/06/01 15:32:39;;;;;;;;;;;;;;;;;;2213825;59;1803;-23
2023/06/01 15:35:09;;;;;;;;;;;;;;;;;;2216934;58;2531;-23
2023/06/01 15:37:39;;;;;;;;;;;;;;;;;;2217353;58;1860;-23
2023/06/01 15:40:13;;;;;;;;;;;;;;;;;;2217046;66;2412;-23
2023/06/01 15:42:43;;;;;;;;;;;;;;;;;;2217202;66;1466;-23
2023/06/01 15:45:14;;;;;;;;;;;;;;;;;;2217120;66;1929;-23
2023/06/01 15:47:44;;;;;;;;;;;;;;;;;;2218024;58;2819;-23
2023/06/01 15:50:14;;;;;;;;;;;;;;;;;;2213821;59;2881;-23
2023/06/01 15:52:44;;;;;;;;;;;;;;;;;;2218003;58;2660;-23
2023/06/01 15:55:15;;;;;;;;;;;;;;;;;;2216847;58;2859;-23
2023/06/01 15:57:45;;;;;;;;;;;;;;;;;;2214875;58;2835;-23
2023/06/01 16:00:16;;;;;;;;;;;;;;;;;;2217453;59;3673;-23
2023/06/01 16:02:46;;;;;;;;;;;;;;;;;;2218867;66;1984;-23
2023/06/01 16:05:16;;;;;;;;;;;;;;;;;;2217744;66;2989;-23
2023/06/01 16:07:46;;;;;;;;;;;;;;;;;;2217729;58;1894;-22
2023/06/01 16:10:17;;;;;;;;;;;;;;;;;;2217064;63;1699;-22
2023/06/01 16:12:47;;;;;;;;;;;;;;;;;;2218215;66;1984;-22
2023/06/01 16:15:17;;;;;;;;;;;;;;;;;;2217869;66;2403;-22
2023/06/01 16:17:47;;;;;;;;;;;;;;;;;;2213808;66;1617;-22
2023/06/01 16:20:20;;;;;;;;;;;;;;;;;;2215892;58;2374;-22
2023/06/01 16:22:51;;;;;;;;;;;;;;;;;;2217748;66;2399;-22
2023/06/01 16:25:24;;;;;;;;;;;;;;;;;;2213212;66;2604;-22
2023/06/01 16:27:54;;;;;;;;;;;;;;;;;;2216278;63;2834;-22
2023/06/01 16:30:25;;;;;;;;;;;;;;;;;;2217492;58;3576;-22
2023/06/01 16:32:55;;;;;;;;;;;;;;;;;;2217716;66;2462;-22
2023/06/01 16:35:26;;;;;;;;;;;;;;;;;;2215236;59;2266;-22
2023/06/01 16:37:56;;;;;;;;;;;;;;;;;;2218994;59;1765;-22
2023/06/01 16:40:27;;;;;;;;;;;;;;;;;;2216981;66;1648;-22
2023/06/01 16:42:57;;;;;;;;;;;;;;;;;;2217072;66;2204;-24
2023/06/01 16:45:27;;;;;;;;;;;;;;;;;;2216966;66;1940;-24
2023/06/01 16:47:57;;;;;;;;;;;;;;;;;;2217633;66;2882;-24
2023/06/01 16:50:28;;;;;;;;;;;;;;;;;;2213548;59;2458;-24
2023/06/01 16:52:58;;;;;;;;;;;;;;;;;;2217443;59;2833;-22
2023/06/01 16:55:28;;;;;;;;;;;;;;;;;;2213706;59;1851;-22
2023/06/01 16:57:58;;;;;;;;;;;;;;;;;;2217668;58;2653;-23
2023/06/01 17:00:29;;;;;;;;;;;;;;;;;;2213699;58;1793;-23
2023/06/01 17:02:59;;;;;;;;;;;;;;;;;;2213628;66;2145;-23
2023/06/01 17:05:29;;;;;;;;;;;;;;;;;;2215956;66;2006;-30
2023/06/01 17:08:00;;;;;;;;;;;;;;;;;;2213214;59;2125;-23
2023/06/01 17:10:30;;;;;;;;;;;;;;;;;;2216701;66;2526;-23
2023/06/01 17:13:00;;;;;;;;;;;;;;;;;;2217505;66;1764;-23
2023/06/01 17:15:31;;;;;;;;;;;;;;;;;;2213288;66;2069;-23
2023/06/01 17:18:02;;;;;;;;;;;;;;;;;;2213931;66;2586;-23
2023/06/01 17:20:32;;;;;;;;;;;;;;;;;;2217088;66;2205;-22
2023/06/01 17:23:02;;;;;;;;;;;;;;;;;;2216788;66;2327;-22
2023/06/01 17:25:33;;;;;;;;;;;;;;;;;;2217485;66;3090;-22
2023/06/01 17:28:03;;;;;;;;;;;;;;;;;;2216395;58;2303;-22
2023/06/01 17:30:34;;;;;;;;;;;;;;;;;;2216969;58;3068;-22
2023/06/01 17:33:05;;;;;;;;;;;;;;;;;;2217311;66;1925;-22